sensor_id;sensor_type;location;lat;lon;timestamp;P1;durP1;ratioP1;P2;durP2;ratioP2
55647;SDS011;45266;48.756;9.246;2023-03-01T00:00:34;16.50;;;10.93;;
55647;SDS011;45266;48.756;9.246;2023-03-01T00:01:36;18.53;;;11.90;;
55647;SDS011;45266;48.756;9.246;2023-03-01T00:02:38;19.63;;;12.37;;
55647;SDS011;45266;48.756;9.246;2023-03-01T00:03:41;21.60;;;12.73;;
55647;SDS011;45266;48.756;9.246;2023-03-01T00:04:44;19.23;;;11.33;;
55647;SDS011;45266;48.756;9.246;2023-03-01T00:05:46;20.67;;;11.83;;
55647;SDS011;45266;48.756;9.246;2023-03-01T00:06:48;19.60;;;12.57;;
55647;SDS011;45266;48.756;9.246;2023-03-01T00:07:52;23.30;;;11.90;;
55647;SDS011;45266;48.756;9.246;2023-03-01T00:08:54;18.57;;;12.23;;
55647;SDS011;45266;48.756;9.246;2023-03-01T00:09:56;19.57;;;12.17;;
55647;SDS011;45266;48.756;9.246;2023-03-01T00:11:06;21.20;;;11.73;;
55647;SDS011;45266;48.756;9.246;2023-03-01T00:12:11;17.90;;;11.80;;
55647;SDS011;45266;48.756;9.246;2023-03-01T00:13:12;20.33;;;12.40;;
55647;SDS011;45266;48.756;9.246;2023-03-01T00:14:14;19.13;;;12.23;;
55647;SDS011;45266;48.756;9.246;2023-03-01T00:15:18;20.73;;;11.87;;
55647;SDS011;45266;48.756;9.246;2023-03-01T00:16:24;20.93;;;12.63;;
55647;SDS011;45266;48.756;9.246;2023-03-01T00:17:29;22.40;;;11.97;;
55647;SDS011;45266;48.756;9.246;2023-03-01T00:18:31;20.13;;;12.23;;
55647;SDS011;45266;48.756;9.246;2023-03-01T00:19:33;19.00;;;12.40;;
55647;SDS011;45266;48.756;9.246;2023-03-01T00:20:35;18.83;;;12.03;;
55647;SDS011;45266;48.756;9.246;2023-03-01T00:21:37;20.80;;;12.77;;
55647;SDS011;45266;48.756;9.246;2023-03-01T00:22:38;21.50;;;12.03;;
55647;SDS011;45266;48.756;9.246;2023-03-01T00:23:40;20.53;;;12.33;;
55647;SDS011;45266;48.756;9.246;2023-03-01T00:24:42;18.17;;;11.97;;
55647;SDS011;45266;48.756;9.246;2023-03-01T00:25:44;18.80;;;11.47;;
55647;SDS011;45266;48.756;9.246;2023-03-01T00:26:46;25.40;;;12.60;;
55647;SDS011;45266;48.756;9.246;2023-03-01T00:27:47;15.27;;;11.40;;
55647;SDS011;45266;48.756;9.246;2023-03-01T00:28:50;19.67;;;11.07;;
55647;SDS011;45266;48.756;9.246;2023-03-01T00:29:52;18.93;;;12.00;;
55647;SDS011;45266;48.756;9.246;2023-03-01T00:30:54;17.97;;;11.80;;
55647;SDS011;45266;48.756;9.246;2023-03-01T00:31:56;21.50;;;12.53;;
55647;SDS011;45266;48.756;9.246;2023-03-01T00:32:58;17.13;;;11.47;;
55647;SDS011;45266;48.756;9.246;2023-03-01T00:34:00;20.10;;;12.63;;
55647;SDS011;45266;48.756;9.246;2023-03-01T00:35:04;20.50;;;12.00;;
55647;SDS011;45266;48.756;9.246;2023-03-01T00:36:07;17.40;;;11.53;;
55647;SDS011;45266;48.756;9.246;2023-03-01T00:37:09;17.23;;;11.33;;
55647;SDS011;45266;48.756;9.246;2023-03-01T00:38:11;17.50;;;11.70;;
55647;SDS011;45266;48.756;9.246;2023-03-01T00:39:14;20.07;;;12.40;;
55647;SDS011;45266;48.756;9.246;2023-03-01T00:40:16;17.80;;;12.10;;
55647;SDS011;45266;48.756;9.246;2023-03-01T00:41:18;19.47;;;11.53;;
55647;SDS011;45266;48.756;9.246;2023-03-01T00:42:21;17.53;;;10.90;;
55647;SDS011;45266;48.756;9.246;2023-03-01T00:43:23;18.27;;;11.90;;
55647;SDS011;45266;48.756;9.246;2023-03-01T00:44:25;18.10;;;12.20;;
55647;SDS011;45266;48.756;9.246;2023-03-01T00:45:27;19.03;;;11.90;;
55647;SDS011;45266;48.756;9.246;2023-03-01T00:46:29;19.33;;;12.20;;
55647;SDS011;45266;48.756;9.246;2023-03-01T00:47:34;19.77;;;12.60;;
55647;SDS011;45266;48.756;9.246;2023-03-01T00:48:35;17.20;;;11.43;;
55647;SDS011;45266;48.756;9.246;2023-03-01T00:49:38;19.93;;;12.27;;
55647;SDS011;45266;48.756;9.246;2023-03-01T00:50:39;21.83;;;12.33;;
55647;SDS011;45266;48.756;9.246;2023-03-01T00:51:41;20.17;;;12.63;;
55647;SDS011;45266;48.756;9.246;2023-03-01T00:52:44;22.17;;;12.77;;
55647;SDS011;45266;48.756;9.246;2023-03-01T00:53:46;25.80;;;13.00;;
55647;SDS011;45266;48.756;9.246;2023-03-01T00:54:51;19.90;;;12.17;;
55647;SDS011;45266;48.756;9.246;2023-03-01T00:55:54;20.27;;;12.03;;
55647;SDS011;45266;48.756;9.246;2023-03-01T00:56:59;17.93;;;11.10;;
55647;SDS011;45266;48.756;9.246;2023-03-01T00:58:00;18.37;;;12.40;;
55647;SDS011;45266;48.756;9.246;2023-03-01T00:59:02;19.10;;;11.37;;
55647;SDS011;45266;48.756;9.246;2023-03-01T01:00:05;18.27;;;12.37;;
55647;SDS011;45266;48.756;9.246;2023-03-01T01:01:18;21.43;;;12.70;;
55647;SDS011;45266;48.756;9.246;2023-03-01T01:02:22;19.63;;;11.97;;
55647;SDS011;45266;48.756;9.246;2023-03-01T01:03:24;20.47;;;12.83;;
55647;SDS011;45266;48.756;9.246;2023-03-01T01:04:26;18.97;;;12.17;;
55647;SDS011;45266;48.756;9.246;2023-03-01T01:05:28;20.67;;;12.27;;
55647;SDS011;45266;48.756;9.246;2023-03-01T01:06:33;17.70;;;11.60;;
55647;SDS011;45266;48.756;9.246;2023-03-01T01:07:37;20.13;;;12.57;;
55647;SDS011;45266;48.756;9.246;2023-03-01T01:08:39;19.33;;;11.53;;
55647;SDS011;45266;48.756;9.246;2023-03-01T01:09:41;19.90;;;12.07;;
55647;SDS011;45266;48.756;9.246;2023-03-01T01:10:43;20.40;;;12.77;;
55647;SDS011;45266;48.756;9.246;2023-03-01T01:11:49;17.80;;;11.33;;
55647;SDS011;45266;48.756;9.246;2023-03-01T01:12:52;20.17;;;12.93;;
55647;SDS011;45266;48.756;9.246;2023-03-01T01:13:54;18.17;;;12.50;;
55647;SDS011;45266;48.756;9.246;2023-03-01T01:14:56;18.47;;;11.20;;
55647;SDS011;45266;48.756;9.246;2023-03-01T01:16:01;18.93;;;11.60;;
55647;SDS011;45266;48.756;9.246;2023-03-01T01:17:03;18.83;;;12.27;;
55647;SDS011;45266;48.756;9.246;2023-03-01T01:18:05;18.43;;;11.60;;
55647;SDS011;45266;48.756;9.246;2023-03-01T01:19:08;18.10;;;12.00;;
55647;SDS011;45266;48.756;9.246;2023-03-01T01:20:11;21.27;;;11.53;;
55647;SDS011;45266;48.756;9.246;2023-03-01T01:21:14;22.30;;;12.33;;
55647;SDS011;45266;48.756;9.246;2023-03-01T01:22:18;18.73;;;12.07;;
55647;SDS011;45266;48.756;9.246;2023-03-01T01:23:20;18.37;;;11.37;;
55647;SDS011;45266;48.756;9.246;2023-03-01T01:24:21;19.53;;;12.00;;
55647;SDS011;45266;48.756;9.246;2023-03-01T01:25:23;20.10;;;12.07;;
55647;SDS011;45266;48.756;9.246;2023-03-01T01:26:29;18.90;;;11.13;;
55647;SDS011;45266;48.756;9.246;2023-03-01T01:27:33;23.90;;;11.93;;
55647;SDS011;45266;48.756;9.246;2023-03-01T01:28:35;19.93;;;12.57;;
55647;SDS011;45266;48.756;9.246;2023-03-01T01:29:37;19.97;;;12.80;;
55647;SDS011;45266;48.756;9.246;2023-03-01T01:30:38;19.50;;;12.40;;
55647;SDS011;45266;48.756;9.246;2023-03-01T01:31:41;21.27;;;13.07;;
55647;SDS011;45266;48.756;9.246;2023-03-01T01:32:43;20.47;;;13.27;;
55647;SDS011;45266;48.756;9.246;2023-03-01T01:33:46;18.90;;;12.47;;
55647;SDS011;45266;48.756;9.246;2023-03-01T01:34:47;18.90;;;11.97;;
55647;SDS011;45266;48.756;9.246;2023-03-01T01:35:49;21.00;;;12.53;;
55647;SDS011;45266;48.756;9.246;2023-03-01T01:36:52;22.03;;;12.70;;
55647;SDS011;45266;48.756;9.246;2023-03-01T01:37:57;19.53;;;12.27;;
55647;SDS011;45266;48.756;9.246;2023-03-01T01:38:59;20.87;;;12.97;;
55647;SDS011;45266;48.756;9.246;2023-03-01T01:40:01;19.40;;;12.80;;
55647;SDS011;45266;48.756;9.246;2023-03-01T01:41:07;21.60;;;12.67;;
55647;SDS011;45266;48.756;9.246;2023-03-01T01:42:14;20.10;;;12.70;;
55647;SDS011;45266;48.756;9.246;2023-03-01T01:43:37;20.80;;;13.37;;
55647;SDS011;45266;48.756;9.246;2023-03-01T01:44:47;21.50;;;12.57;;
55647;SDS011;45266;48.756;9.246;2023-03-01T01:47:15;20.33;;;12.47;;
55647;SDS011;45266;48.756;9.246;2023-03-01T01:48:22;22.20;;;12.60;;
55647;SDS011;45266;48.756;9.246;2023-03-01T01:50:40;21.33;;;12.70;;
55647;SDS011;45266;48.756;9.246;2023-03-01T01:51:43;21.40;;;12.80;;
55647;SDS011;45266;48.756;9.246;2023-03-01T01:52:49;22.27;;;12.63;;
55647;SDS011;45266;48.756;9.246;2023-03-01T01:53:54;20.43;;;13.10;;
55647;SDS011;45266;48.756;9.246;2023-03-01T01:56:09;21.10;;;12.37;;
55647;SDS011;45266;48.756;9.246;2023-03-01T01:57:18;22.40;;;13.47;;
55647;SDS011;45266;48.756;9.246;2023-03-01T01:58:23;19.67;;;11.97;;
55647;SDS011;45266;48.756;9.246;2023-03-01T01:59:26;22.20;;;12.93;;
55647;SDS011;45266;48.756;9.246;2023-03-01T02:00:29;23.57;;;14.00;;
55647;SDS011;45266;48.756;9.246;2023-03-01T02:01:31;18.90;;;11.90;;
55647;SDS011;45266;48.756;9.246;2023-03-01T02:02:33;20.97;;;12.47;;
55647;SDS011;45266;48.756;9.246;2023-03-01T02:03:36;21.57;;;13.37;;
55647;SDS011;45266;48.756;9.246;2023-03-01T02:04:43;21.03;;;13.53;;
55647;SDS011;45266;48.756;9.246;2023-03-01T02:06:04;21.43;;;12.63;;
55647;SDS011;45266;48.756;9.246;2023-03-01T02:07:17;22.03;;;12.57;;
55647;SDS011;45266;48.756;9.246;2023-03-01T02:08:22;22.27;;;12.67;;
55647;SDS011;45266;48.756;9.246;2023-03-01T02:09:26;23.30;;;13.23;;
55647;SDS011;45266;48.756;9.246;2023-03-01T02:10:28;20.97;;;13.20;;
55647;SDS011;45266;48.756;9.246;2023-03-01T02:11:34;20.53;;;13.23;;
55647;SDS011;45266;48.756;9.246;2023-03-01T02:12:38;22.20;;;13.10;;
55647;SDS011;45266;48.756;9.246;2023-03-01T02:13:41;21.70;;;13.17;;
55647;SDS011;45266;48.756;9.246;2023-03-01T02:14:43;22.37;;;14.20;;
55647;SDS011;45266;48.756;9.246;2023-03-01T02:15:45;20.90;;;12.77;;
55647;SDS011;45266;48.756;9.246;2023-03-01T02:16:47;22.43;;;13.10;;
55647;SDS011;45266;48.756;9.246;2023-03-01T02:17:49;23.60;;;13.43;;
55647;SDS011;45266;48.756;9.246;2023-03-01T02:18:52;21.30;;;13.23;;
55647;SDS011;45266;48.756;9.246;2023-03-01T02:21:42;21.50;;;13.57;;
55647;SDS011;45266;48.756;9.246;2023-03-01T02:22:56;22.00;;;13.03;;
55647;SDS011;45266;48.756;9.246;2023-03-01T02:23:59;22.77;;;13.23;;
55647;SDS011;45266;48.756;9.246;2023-03-01T02:26:36;27.03;;;14.40;;
55647;SDS011;45266;48.756;9.246;2023-03-01T02:27:49;24.80;;;13.17;;
55647;SDS011;45266;48.756;9.246;2023-03-01T02:28:55;21.60;;;12.80;;
55647;SDS011;45266;48.756;9.246;2023-03-01T02:29:57;19.60;;;12.77;;
55647;SDS011;45266;48.756;9.246;2023-03-01T02:30:58;24.97;;;14.00;;
55647;SDS011;45266;48.756;9.246;2023-03-01T02:32:20;25.13;;;13.80;;
55647;SDS011;45266;48.756;9.246;2023-03-01T02:33:26;22.00;;;13.47;;
55647;SDS011;45266;48.756;9.246;2023-03-01T02:34:29;23.43;;;14.63;;
55647;SDS011;45266;48.756;9.246;2023-03-01T02:35:34;20.90;;;13.77;;
55647;SDS011;45266;48.756;9.246;2023-03-01T02:36:40;21.60;;;12.80;;
55647;SDS011;45266;48.756;9.246;2023-03-01T02:37:45;24.07;;;14.10;;
55647;SDS011;45266;48.756;9.246;2023-03-01T02:38:49;23.10;;;14.00;;
55647;SDS011;45266;48.756;9.246;2023-03-01T02:39:56;21.27;;;13.23;;
55647;SDS011;45266;48.756;9.246;2023-03-01T02:41:00;19.90;;;13.13;;
55647;SDS011;45266;48.756;9.246;2023-03-01T02:42:04;19.60;;;13.67;;
55647;SDS011;45266;48.756;9.246;2023-03-01T02:43:08;17.63;;;12.67;;
55647;SDS011;45266;48.756;9.246;2023-03-01T02:44:13;25.37;;;14.13;;
55647;SDS011;45266;48.756;9.246;2023-03-01T02:45:15;20.70;;;12.80;;
55647;SDS011;45266;48.756;9.246;2023-03-01T02:46:19;22.10;;;13.30;;
55647;SDS011;45266;48.756;9.246;2023-03-01T02:47:23;20.00;;;13.20;;
55647;SDS011;45266;48.756;9.246;2023-03-01T02:48:25;21.37;;;13.60;;
55647;SDS011;45266;48.756;9.246;2023-03-01T02:49:31;22.77;;;13.83;;
55647;SDS011;45266;48.756;9.246;2023-03-01T02:50:44;20.63;;;13.83;;
55647;SDS011;45266;48.756;9.246;2023-03-01T02:52:06;20.80;;;12.80;;
55647;SDS011;45266;48.756;9.246;2023-03-01T02:53:24;22.03;;;13.80;;
55647;SDS011;45266;48.756;9.246;2023-03-01T02:55:39;20.13;;;13.10;;
55647;SDS011;45266;48.756;9.246;2023-03-01T02:56:41;19.37;;;12.23;;
55647;SDS011;45266;48.756;9.246;2023-03-01T02:57:45;20.97;;;13.37;;
55647;SDS011;45266;48.756;9.246;2023-03-01T02:58:51;20.87;;;12.80;;
55647;SDS011;45266;48.756;9.246;2023-03-01T02:59:57;17.40;;;11.80;;
55647;SDS011;45266;48.756;9.246;2023-03-01T03:01:02;20.43;;;12.73;;
55647;SDS011;45266;48.756;9.246;2023-03-01T03:02:05;21.20;;;13.17;;
55647;SDS011;45266;48.756;9.246;2023-03-01T03:03:37;19.17;;;13.03;;
55647;SDS011;45266;48.756;9.246;2023-03-01T03:04:38;20.73;;;13.57;;
55647;SDS011;45266;48.756;9.246;2023-03-01T03:05:40;22.80;;;13.70;;
55647;SDS011;45266;48.756;9.246;2023-03-01T03:06:45;21.40;;;13.57;;
55647;SDS011;45266;48.756;9.246;2023-03-01T03:07:48;19.57;;;12.33;;
55647;SDS011;45266;48.756;9.246;2023-03-01T03:08:51;20.70;;;13.00;;
55647;SDS011;45266;48.756;9.246;2023-03-01T03:09:53;19.03;;;12.50;;
55647;SDS011;45266;48.756;9.246;2023-03-01T03:10:54;19.03;;;13.30;;
55647;SDS011;45266;48.756;9.246;2023-03-01T03:11:57;21.03;;;13.27;;
55647;SDS011;45266;48.756;9.246;2023-03-01T03:13:09;21.23;;;13.27;;
55647;SDS011;45266;48.756;9.246;2023-03-01T03:14:13;22.43;;;13.67;;
55647;SDS011;45266;48.756;9.246;2023-03-01T03:15:17;23.20;;;12.50;;
55647;SDS011;45266;48.756;9.246;2023-03-01T03:16:19;20.33;;;12.90;;
55647;SDS011;45266;48.756;9.246;2023-03-01T03:17:21;22.03;;;12.80;;
55647;SDS011;45266;48.756;9.246;2023-03-01T03:18:24;21.50;;;13.37;;
55647;SDS011;45266;48.756;9.246;2023-03-01T03:19:29;19.77;;;13.03;;
55647;SDS011;45266;48.756;9.246;2023-03-01T03:20:30;20.77;;;13.37;;
55647;SDS011;45266;48.756;9.246;2023-03-01T03:21:33;20.60;;;13.63;;
55647;SDS011;45266;48.756;9.246;2023-03-01T03:22:35;22.27;;;13.43;;
55647;SDS011;45266;48.756;9.246;2023-03-01T03:23:37;21.07;;;13.23;;
55647;SDS011;45266;48.756;9.246;2023-03-01T03:24:39;21.80;;;13.57;;
55647;SDS011;45266;48.756;9.246;2023-03-01T03:25:41;25.30;;;14.70;;
55647;SDS011;45266;48.756;9.246;2023-03-01T03:26:43;22.43;;;14.03;;
55647;SDS011;45266;48.756;9.246;2023-03-01T03:27:45;23.10;;;13.93;;
55647;SDS011;45266;48.756;9.246;2023-03-01T03:28:49;21.40;;;13.50;;
55647;SDS011;45266;48.756;9.246;2023-03-01T03:29:50;20.30;;;13.17;;
55647;SDS011;45266;48.756;9.246;2023-03-01T03:30:52;19.07;;;13.67;;
55647;SDS011;45266;48.756;9.246;2023-03-01T03:31:54;20.87;;;13.77;;
55647;SDS011;45266;48.756;9.246;2023-03-01T03:32:56;19.77;;;13.23;;
55647;SDS011;45266;48.756;9.246;2023-03-01T03:33:59;22.03;;;13.40;;
55647;SDS011;45266;48.756;9.246;2023-03-01T03:35:01;20.07;;;12.90;;
55647;SDS011;45266;48.756;9.246;2023-03-01T03:36:14;20.07;;;12.97;;
55647;SDS011;45266;48.756;9.246;2023-03-01T03:37:18;21.90;;;14.37;;
55647;SDS011;45266;48.756;9.246;2023-03-01T03:38:39;21.03;;;13.43;;
55647;SDS011;45266;48.756;9.246;2023-03-01T03:39:41;19.20;;;12.80;;
55647;SDS011;45266;48.756;9.246;2023-03-01T03:40:46;20.73;;;12.77;;
55647;SDS011;45266;48.756;9.246;2023-03-01T03:41:50;20.67;;;14.00;;
55647;SDS011;45266;48.756;9.246;2023-03-01T03:42:52;22.40;;;13.50;;
55647;SDS011;45266;48.756;9.246;2023-03-01T03:43:54;22.17;;;13.20;;
55647;SDS011;45266;48.756;9.246;2023-03-01T03:44:55;21.77;;;13.13;;
55647;SDS011;45266;48.756;9.246;2023-03-01T03:45:57;20.87;;;13.67;;
55647;SDS011;45266;48.756;9.246;2023-03-01T03:46:59;19.23;;;12.50;;
55647;SDS011;45266;48.756;9.246;2023-03-01T03:48:01;21.03;;;14.17;;
55647;SDS011;45266;48.756;9.246;2023-03-01T03:49:05;24.00;;;14.33;;
55647;SDS011;45266;48.756;9.246;2023-03-01T03:50:08;18.97;;;13.60;;
55647;SDS011;45266;48.756;9.246;2023-03-01T03:51:12;18.97;;;13.20;;
55647;SDS011;45266;48.756;9.246;2023-03-01T03:52:14;23.80;;;13.90;;
55647;SDS011;45266;48.756;9.246;2023-03-01T03:53:16;21.97;;;12.90;;
55647;SDS011;45266;48.756;9.246;2023-03-01T03:54:18;19.97;;;13.73;;
55647;SDS011;45266;48.756;9.246;2023-03-01T03:55:20;22.50;;;13.60;;
55647;SDS011;45266;48.756;9.246;2023-03-01T03:56:21;19.87;;;13.03;;
55647;SDS011;45266;48.756;9.246;2023-03-01T03:57:29;19.63;;;12.53;;
55647;SDS011;45266;48.756;9.246;2023-03-01T03:58:30;21.40;;;12.83;;
55647;SDS011;45266;48.756;9.246;2023-03-01T03:59:33;18.83;;;12.90;;
55647;SDS011;45266;48.756;9.246;2023-03-01T04:00:36;22.40;;;14.03;;
55647;SDS011;45266;48.756;9.246;2023-03-01T04:01:42;18.63;;;12.70;;
55647;SDS011;45266;48.756;9.246;2023-03-01T04:02:46;18.60;;;13.10;;
55647;SDS011;45266;48.756;9.246;2023-03-01T04:03:49;22.57;;;13.43;;
55647;SDS011;45266;48.756;9.246;2023-03-01T04:04:55;20.67;;;13.03;;
55647;SDS011;45266;48.756;9.246;2023-03-01T04:05:57;19.33;;;12.97;;
55647;SDS011;45266;48.756;9.246;2023-03-01T04:07:00;22.53;;;14.33;;
55647;SDS011;45266;48.756;9.246;2023-03-01T04:08:02;21.20;;;13.47;;
55647;SDS011;45266;48.756;9.246;2023-03-01T04:09:08;20.80;;;13.30;;
55647;SDS011;45266;48.756;9.246;2023-03-01T04:10:14;21.17;;;13.63;;
55647;SDS011;45266;48.756;9.246;2023-03-01T04:11:17;21.50;;;13.17;;
55647;SDS011;45266;48.756;9.246;2023-03-01T04:12:28;20.20;;;13.53;;
55647;SDS011;45266;48.756;9.246;2023-03-01T04:13:30;23.53;;;14.40;;
55647;SDS011;45266;48.756;9.246;2023-03-01T04:14:31;22.70;;;14.27;;
55647;SDS011;45266;48.756;9.246;2023-03-01T04:15:34;23.20;;;14.33;;
55647;SDS011;45266;48.756;9.246;2023-03-01T04:16:37;23.27;;;14.43;;
55647;SDS011;45266;48.756;9.246;2023-03-01T04:17:42;23.17;;;14.63;;
55647;SDS011;45266;48.756;9.246;2023-03-01T04:18:45;24.03;;;14.33;;
55647;SDS011;45266;48.756;9.246;2023-03-01T04:19:47;22.37;;;13.70;;
55647;SDS011;45266;48.756;9.246;2023-03-01T04:20:50;22.97;;;14.57;;
55647;SDS011;45266;48.756;9.246;2023-03-01T04:21:53;22.20;;;14.17;;
55647;SDS011;45266;48.756;9.246;2023-03-01T04:23:05;18.57;;;13.07;;
55647;SDS011;45266;48.756;9.246;2023-03-01T04:24:12;24.13;;;14.50;;
55647;SDS011;45266;48.756;9.246;2023-03-01T04:25:13;20.60;;;13.90;;
55647;SDS011;45266;48.756;9.246;2023-03-01T04:26:15;21.77;;;14.30;;
55647;SDS011;45266;48.756;9.246;2023-03-01T04:27:17;21.70;;;13.97;;
55647;SDS011;45266;48.756;9.246;2023-03-01T04:28:19;21.47;;;13.40;;
55647;SDS011;45266;48.756;9.246;2023-03-01T04:29:22;25.07;;;13.70;;
55647;SDS011;45266;48.756;9.246;2023-03-01T04:30:24;21.27;;;13.37;;
55647;SDS011;45266;48.756;9.246;2023-03-01T04:31:26;21.07;;;13.83;;
55647;SDS011;45266;48.756;9.246;2023-03-01T04:32:28;20.73;;;13.67;;
55647;SDS011;45266;48.756;9.246;2023-03-01T04:33:30;23.70;;;14.00;;
55647;SDS011;45266;48.756;9.246;2023-03-01T04:34:32;23.83;;;14.43;;
55647;SDS011;45266;48.756;9.246;2023-03-01T04:35:34;23.87;;;13.70;;
55647;SDS011;45266;48.756;9.246;2023-03-01T04:36:37;22.73;;;13.73;;
55647;SDS011;45266;48.756;9.246;2023-03-01T04:37:41;21.90;;;13.67;;
55647;SDS011;45266;48.756;9.246;2023-03-01T04:38:42;23.30;;;13.50;;
55647;SDS011;45266;48.756;9.246;2023-03-01T04:39:48;24.03;;;14.00;;
55647;SDS011;45266;48.756;9.246;2023-03-01T04:40:50;25.43;;;14.50;;
55647;SDS011;45266;48.756;9.246;2023-03-01T04:41:51;21.57;;;14.13;;
55647;SDS011;45266;48.756;9.246;2023-03-01T04:42:53;23.73;;;14.37;;
55647;SDS011;45266;48.756;9.246;2023-03-01T04:43:55;20.33;;;13.57;;
55647;SDS011;45266;48.756;9.246;2023-03-01T04:44:57;23.67;;;13.90;;
55647;SDS011;45266;48.756;9.246;2023-03-01T04:46:18;21.20;;;14.10;;
55647;SDS011;45266;48.756;9.246;2023-03-01T04:47:21;21.90;;;14.50;;
55647;SDS011;45266;48.756;9.246;2023-03-01T04:48:23;22.03;;;13.97;;
55647;SDS011;45266;48.756;9.246;2023-03-01T04:49:24;22.00;;;14.10;;
55647;SDS011;45266;48.756;9.246;2023-03-01T04:50:26;21.30;;;14.20;;
55647;SDS011;45266;48.756;9.246;2023-03-01T04:51:28;22.30;;;13.90;;
55647;SDS011;45266;48.756;9.246;2023-03-01T04:52:30;23.00;;;14.23;;
55647;SDS011;45266;48.756;9.246;2023-03-01T04:53:32;21.07;;;13.53;;
55647;SDS011;45266;48.756;9.246;2023-03-01T04:54:37;22.07;;;14.07;;
55647;SDS011;45266;48.756;9.246;2023-03-01T04:55:39;23.33;;;15.27;;
55647;SDS011;45266;48.756;9.246;2023-03-01T04:56:40;20.57;;;14.23;;
55647;SDS011;45266;48.756;9.246;2023-03-01T04:57:42;28.47;;;15.20;;
55647;SDS011;45266;48.756;9.246;2023-03-01T04:58:44;22.13;;;14.50;;
55647;SDS011;45266;48.756;9.246;2023-03-01T04:59:47;25.43;;;14.57;;
55647;SDS011;45266;48.756;9.246;2023-03-01T05:00:48;22.17;;;13.90;;
55647;SDS011;45266;48.756;9.246;2023-03-01T05:01:50;21.50;;;14.50;;
55647;SDS011;45266;48.756;9.246;2023-03-01T05:02:54;22.83;;;14.07;;
55647;SDS011;45266;48.756;9.246;2023-03-01T05:03:57;22.90;;;14.73;;
55647;SDS011;45266;48.756;9.246;2023-03-01T05:05:04;22.40;;;15.17;;
55647;SDS011;45266;48.756;9.246;2023-03-01T05:06:06;20.40;;;14.07;;
55647;SDS011;45266;48.756;9.246;2023-03-01T05:07:08;21.87;;;14.60;;
55647;SDS011;45266;48.756;9.246;2023-03-01T05:08:10;24.00;;;14.23;;
55647;SDS011;45266;48.756;9.246;2023-03-01T05:09:18;23.17;;;14.80;;
55647;SDS011;45266;48.756;9.246;2023-03-01T05:10:20;21.77;;;14.30;;
55647;SDS011;45266;48.756;9.246;2023-03-01T05:11:22;23.07;;;15.20;;
55647;SDS011;45266;48.756;9.246;2023-03-01T05:12:24;23.77;;;14.70;;
55647;SDS011;45266;48.756;9.246;2023-03-01T05:13:25;25.87;;;15.00;;
55647;SDS011;45266;48.756;9.246;2023-03-01T05:14:29;22.37;;;15.07;;
55647;SDS011;45266;48.756;9.246;2023-03-01T05:15:31;25.83;;;15.77;;
55647;SDS011;45266;48.756;9.246;2023-03-01T05:16:34;24.97;;;14.90;;
55647;SDS011;45266;48.756;9.246;2023-03-01T05:17:37;25.17;;;14.43;;
55647;SDS011;45266;48.756;9.246;2023-03-01T05:18:39;27.13;;;16.33;;
55647;SDS011;45266;48.756;9.246;2023-03-01T05:19:42;23.27;;;14.90;;
55647;SDS011;45266;48.756;9.246;2023-03-01T05:20:44;23.33;;;14.50;;
55647;SDS011;45266;48.756;9.246;2023-03-01T05:21:45;27.43;;;16.53;;
55647;SDS011;45266;48.756;9.246;2023-03-01T05:23:03;27.90;;;15.93;;
55647;SDS011;45266;48.756;9.246;2023-03-01T05:24:06;31.87;;;16.47;;
55647;SDS011;45266;48.756;9.246;2023-03-01T05:25:12;24.67;;;15.07;;
55647;SDS011;45266;48.756;9.246;2023-03-01T05:26:16;28.67;;;15.90;;
55647;SDS011;45266;48.756;9.246;2023-03-01T05:27:29;23.47;;;14.90;;
55647;SDS011;45266;48.756;9.246;2023-03-01T05:28:31;28.43;;;15.37;;
55647;SDS011;45266;48.756;9.246;2023-03-01T05:29:33;24.80;;;14.67;;
55647;SDS011;45266;48.756;9.246;2023-03-01T05:30:36;26.23;;;16.33;;
55647;SDS011;45266;48.756;9.246;2023-03-01T05:31:40;24.67;;;15.53;;
55647;SDS011;45266;48.756;9.246;2023-03-01T05:32:42;41.17;;;23.23;;
55647;SDS011;45266;48.756;9.246;2023-03-01T05:33:49;32.37;;;19.07;;
55647;SDS011;45266;48.756;9.246;2023-03-01T05:34:50;25.77;;;16.37;;
55647;SDS011;45266;48.756;9.246;2023-03-01T05:35:53;25.07;;;16.60;;
55647;SDS011;45266;48.756;9.246;2023-03-01T05:36:55;24.50;;;15.63;;
55647;SDS011;45266;48.756;9.246;2023-03-01T05:37:57;23.83;;;15.23;;
55647;SDS011;45266;48.756;9.246;2023-03-01T05:38:59;24.53;;;15.33;;
55647;SDS011;45266;48.756;9.246;2023-03-01T05:40:01;24.57;;;15.53;;
55647;SDS011;45266;48.756;9.246;2023-03-01T05:41:04;21.60;;;14.37;;
55647;SDS011;45266;48.756;9.246;2023-03-01T05:42:06;24.73;;;14.90;;
55647;SDS011;45266;48.756;9.246;2023-03-01T05:43:09;24.87;;;15.30;;
55647;SDS011;45266;48.756;9.246;2023-03-01T05:44:13;21.87;;;15.10;;
55647;SDS011;45266;48.756;9.246;2023-03-01T05:45:15;25.10;;;14.97;;
55647;SDS011;45266;48.756;9.246;2023-03-01T05:46:18;24.37;;;15.70;;
55647;SDS011;45266;48.756;9.246;2023-03-01T05:47:20;22.83;;;15.03;;
55647;SDS011;45266;48.756;9.246;2023-03-01T05:48:22;26.87;;;14.83;;
55647;SDS011;45266;48.756;9.246;2023-03-01T05:49:24;25.17;;;15.43;;
55647;SDS011;45266;48.756;9.246;2023-03-01T05:50:27;20.93;;;14.37;;
55647;SDS011;45266;48.756;9.246;2023-03-01T05:51:30;21.20;;;15.17;;
55647;SDS011;45266;48.756;9.246;2023-03-01T05:52:33;25.33;;;15.43;;
55647;SDS011;45266;48.756;9.246;2023-03-01T05:53:35;23.27;;;15.03;;
55647;SDS011;45266;48.756;9.246;2023-03-01T05:54:37;27.50;;;16.93;;
55647;SDS011;45266;48.756;9.246;2023-03-01T05:55:39;24.97;;;15.30;;
55647;SDS011;45266;48.756;9.246;2023-03-01T05:56:41;25.73;;;15.93;;
55647;SDS011;45266;48.756;9.246;2023-03-01T05:57:44;25.07;;;16.43;;
55647;SDS011;45266;48.756;9.246;2023-03-01T05:58:47;24.50;;;15.37;;
55647;SDS011;45266;48.756;9.246;2023-03-01T05:59:50;27.07;;;15.60;;
55647;SDS011;45266;48.756;9.246;2023-03-01T06:00:52;24.27;;;15.60;;
55647;SDS011;45266;48.756;9.246;2023-03-01T06:01:56;25.23;;;16.17;;
55647;SDS011;45266;48.756;9.246;2023-03-01T06:02:58;22.83;;;15.03;;
55647;SDS011;45266;48.756;9.246;2023-03-01T06:04:01;24.63;;;15.03;;
55647;SDS011;45266;48.756;9.246;2023-03-01T06:05:04;25.67;;;15.63;;
55647;SDS011;45266;48.756;9.246;2023-03-01T06:06:07;24.80;;;15.93;;
55647;SDS011;45266;48.756;9.246;2023-03-01T06:07:08;22.73;;;14.77;;
55647;SDS011;45266;48.756;9.246;2023-03-01T06:08:10;22.53;;;15.37;;
55647;SDS011;45266;48.756;9.246;2023-03-01T06:09:13;24.27;;;15.43;;
55647;SDS011;45266;48.756;9.246;2023-03-01T06:10:16;22.57;;;14.67;;
55647;SDS011;45266;48.756;9.246;2023-03-01T06:11:19;25.03;;;15.20;;
55647;SDS011;45266;48.756;9.246;2023-03-01T06:12:22;23.17;;;14.87;;
55647;SDS011;45266;48.756;9.246;2023-03-01T06:13:24;22.00;;;14.37;;
55647;SDS011;45266;48.756;9.246;2023-03-01T06:14:26;23.33;;;15.20;;
55647;SDS011;45266;48.756;9.246;2023-03-01T06:15:27;27.77;;;16.37;;
55647;SDS011;45266;48.756;9.246;2023-03-01T06:16:29;23.77;;;15.83;;
55647;SDS011;45266;48.756;9.246;2023-03-01T06:17:32;25.90;;;16.60;;
55647;SDS011;45266;48.756;9.246;2023-03-01T06:18:43;22.90;;;15.27;;
55647;SDS011;45266;48.756;9.246;2023-03-01T06:19:45;22.20;;;14.93;;
55647;SDS011;45266;48.756;9.246;2023-03-01T06:20:54;23.70;;;15.57;;